sensor_id;sensor_type;location;lat;lon;timestamp;P1;durP1;ratioP1;P2;durP2;ratioP2
77415;SDS011;66489;49.230;8.520;2023-04-25T00:00:48;7.57;;;5.20;;
77415;SDS011;66489;49.230;8.520;2023-04-25T00:03:15;6.55;;;5.13;;
77415;SDS011;66489;49.230;8.520;2023-04-25T00:05:42;7.30;;;4.95;;
77415;SDS011;66489;49.230;8.520;2023-04-25T00:08:09;9.50;;;5.28;;
77415;SDS011;66489;49.230;8.520;2023-04-25T00:10:35;7.93;;;5.47;;
77415;SDS011;66489;49.230;8.520;2023-04-25T00:13:02;8.85;;;5.57;;
77415;SDS011;66489;49.230;8.520;2023-04-25T00:15:29;9.10;;;5.47;;
77415;SDS011;66489;49.230;8.520;2023-04-25T00:17:56;7.97;;;5.10;;
77415;SDS011;66489;49.230;8.520;2023-04-25T00:20:23;9.27;;;5.20;;
77415;SDS011;66489;49.230;8.520;2023-04-25T00:22:50;7.30;;;5.30;;
77415;SDS011;66489;49.230;8.520;2023-04-25T00:25:19;7.25;;;5.72;;
77415;SDS011;66489;49.230;8.520;2023-04-25T00:27:46;6.70;;;5.10;;
77415;SDS011;66489;49.230;8.520;2023-04-25T00:30:12;8.77;;;5.25;;
77415;SDS011;66489;49.230;8.520;2023-04-25T00:32:39;7.68;;;4.85;;
77415;SDS011;66489;49.230;8.520;2023-04-25T00:35:06;7.57;;;5.22;;
77415;SDS011;66489;49.230;8.520;2023-04-25T00:37:33;7.30;;;5.40;;
77415;SDS011;66489;49.230;8.520;2023-04-25T00:39:59;8.98;;;5.40;;
77415;SDS011;66489;49.230;8.520;2023-04-25T00:42:26;8.93;;;6.07;;
77415;SDS011;66489;49.230;8.520;2023-04-25T00:44:53;10.05;;;5.85;;
77415;SDS011;66489;49.230;8.520;2023-04-25T00:47:19;9.38;;;5.90;;
77415;SDS011;66489;49.230;8.520;2023-04-25T00:49:46;7.78;;;5.72;;
77415;SDS011;66489;49.230;8.520;2023-04-25T00:52:13;8.23;;;5.60;;
77415;SDS011;66489;49.230;8.520;2023-04-25T00:54:39;7.30;;;5.53;;
77415;SDS011;66489;49.230;8.520;2023-04-25T00:57:06;7.28;;;5.43;;
77415;SDS011;66489;49.230;8.520;2023-04-25T00:59:33;7.53;;;5.30;;
77415;SDS011;66489;49.230;8.520;2023-04-25T01:01:59;8.50;;;5.13;;
77415;SDS011;66489;49.230;8.520;2023-04-25T01:04:29;8.15;;;5.40;;
77415;SDS011;66489;49.230;8.520;2023-04-25T01:06:56;7.32;;;5.40;;
77415;SDS011;66489;49.230;8.520;2023-04-25T01:09:23;8.75;;;5.70;;
77415;SDS011;66489;49.230;8.520;2023-04-25T01:12:10;8.00;;;5.32;;
77415;SDS011;66489;49.230;8.520;2023-04-25T01:14:37;8.52;;;5.60;;
77415;SDS011;66489;49.230;8.520;2023-04-25T01:17:04;8.27;;;5.43;;
77415;SDS011;66489;49.230;8.520;2023-04-25T01:19:31;8.50;;;5.03;;
77415;SDS011;66489;49.230;8.520;2023-04-25T01:21:58;7.05;;;4.95;;
77415;SDS011;66489;49.230;8.520;2023-04-25T01:24:24;6.30;;;4.93;;
77415;SDS011;66489;49.230;8.520;2023-04-25T01:26:52;6.93;;;5.20;;
77415;SDS011;66489;49.230;8.520;2023-04-25T01:29:22;9.07;;;5.43;;
77415;SDS011;66489;49.230;8.520;2023-04-25T01:31:50;8.80;;;5.15;;
77415;SDS011;66489;49.230;8.520;2023-04-25T01:34:18;7.75;;;5.28;;
77415;SDS011;66489;49.230;8.520;2023-04-25T01:36:47;7.68;;;5.30;;
77415;SDS011;66489;49.230;8.520;2023-04-25T01:39:15;7.65;;;5.20;;
77415;SDS011;66489;49.230;8.520;2023-04-25T01:41:43;7.40;;;5.07;;
77415;SDS011;66489;49.230;8.520;2023-04-25T01:44:11;7.20;;;5.28;;
77415;SDS011;66489;49.230;8.520;2023-04-25T01:46:38;7.13;;;5.22;;
77415;SDS011;66489;49.230;8.520;2023-04-25T01:49:05;7.13;;;5.10;;
77415;SDS011;66489;49.230;8.520;2023-04-25T01:51:32;7.20;;;5.38;;
77415;SDS011;66489;49.230;8.520;2023-04-25T01:53:58;8.60;;;5.63;;
77415;SDS011;66489;49.230;8.520;2023-04-25T01:56:29;8.38;;;5.50;;
77415;SDS011;66489;49.230;8.520;2023-04-25T01:58:57;6.97;;;5.00;;
77415;SDS011;66489;49.230;8.520;2023-04-25T02:01:44;7.35;;;5.50;;
77415;SDS011;66489;49.230;8.520;2023-04-25T02:04:19;9.10;;;5.88;;
77415;SDS011;66489;49.230;8.520;2023-04-25T02:06:46;8.98;;;5.80;;
77415;SDS011;66489;49.230;8.520;2023-04-25T02:09:14;7.40;;;5.50;;
77415;SDS011;66489;49.230;8.520;2023-04-25T02:11:45;11.18;;;5.90;;
77415;SDS011;66489;49.230;8.520;2023-04-25T02:14:26;9.95;;;5.95;;
77415;SDS011;66489;49.230;8.520;2023-04-25T02:17:12;8.93;;;5.65;;
77415;SDS011;66489;49.230;8.520;2023-04-25T02:19:39;10.15;;;6.00;;
77415;SDS011;66489;49.230;8.520;2023-04-25T02:22:06;8.93;;;5.85;;
77415;SDS011;66489;49.230;8.520;2023-04-25T02:24:33;8.27;;;5.78;;
77415;SDS011;66489;49.230;8.520;2023-04-25T02:27:00;9.82;;;6.53;;
77415;SDS011;66489;49.230;8.520;2023-04-25T02:29:27;9.27;;;5.80;;
77415;SDS011;66489;49.230;8.520;2023-04-25T02:31:54;9.10;;;6.18;;
77415;SDS011;66489;49.230;8.520;2023-04-25T02:34:20;9.27;;;5.95;;
77415;SDS011;66489;49.230;8.520;2023-04-25T02:36:48;8.50;;;6.10;;
77415;SDS011;66489;49.230;8.520;2023-04-25T02:39:16;10.82;;;6.40;;
77415;SDS011;66489;49.230;8.520;2023-04-25T02:41:43;10.98;;;6.32;;
77415;SDS011;66489;49.230;8.520;2023-04-25T02:44:10;9.57;;;6.32;;
77415;SDS011;66489;49.230;8.520;2023-04-25T02:46:36;10.27;;;6.38;;
77415;SDS011;66489;49.230;8.520;2023-04-25T02:49:05;9.25;;;6.53;;
77415;SDS011;66489;49.230;8.520;2023-04-25T02:51:33;9.80;;;6.40;;
77415;SDS011;66489;49.230;8.520;2023-04-25T02:53:59;10.65;;;7.25;;
77415;SDS011;66489;49.230;8.520;2023-04-25T02:56:26;11.30;;;7.60;;
77415;SDS011;66489;49.230;8.520;2023-04-25T02:58:53;11.57;;;7.40;;
77415;SDS011;66489;49.230;8.520;2023-04-25T03:01:19;9.23;;;6.63;;
77415;SDS011;66489;49.230;8.520;2023-04-25T03:03:47;10.55;;;6.53;;
77415;SDS011;66489;49.230;8.520;2023-04-25T03:06:14;9.15;;;6.50;;
77415;SDS011;66489;49.230;8.520;2023-04-25T03:08:41;10.30;;;7.35;;
77415;SDS011;66489;49.230;8.520;2023-04-25T03:11:09;9.75;;;7.13;;
77415;SDS011;66489;49.230;8.520;2023-04-25T03:13:36;10.65;;;7.55;;
77415;SDS011;66489;49.230;8.520;2023-04-25T03:16:03;9.45;;;6.57;;
77415;SDS011;66489;49.230;8.520;2023-04-25T03:18:30;11.18;;;7.40;;
77415;SDS011;66489;49.230;8.520;2023-04-25T03:20:57;10.32;;;6.55;;
77415;SDS011;66489;49.230;8.520;2023-04-25T03:23:23;10.57;;;7.03;;
77415;SDS011;66489;49.230;8.520;2023-04-25T03:25:49;8.73;;;6.38;;
77415;SDS011;66489;49.230;8.520;2023-04-25T03:28:16;9.90;;;6.53;;
77415;SDS011;66489;49.230;8.520;2023-04-25T03:30:43;10.55;;;6.68;;
77415;SDS011;66489;49.230;8.520;2023-04-25T03:33:10;9.80;;;6.63;;
77415;SDS011;66489;49.230;8.520;2023-04-25T03:35:36;11.18;;;6.43;;
77415;SDS011;66489;49.230;8.520;2023-04-25T03:38:03;10.02;;;6.47;;
77415;SDS011;66489;49.230;8.520;2023-04-25T03:40:36;8.38;;;6.07;;
77415;SDS011;66489;49.230;8.520;2023-04-25T03:43:12;9.23;;;6.20;;
77415;SDS011;66489;49.230;8.520;2023-04-25T03:45:45;10.13;;;6.15;;
77415;SDS011;66489;49.230;8.520;2023-04-25T03:48:13;8.38;;;6.55;;
77415;SDS011;66489;49.230;8.520;2023-04-25T03:50:39;10.35;;;6.93;;
77415;SDS011;66489;49.230;8.520;2023-04-25T03:53:06;10.10;;;6.93;;
77415;SDS011;66489;49.230;8.520;2023-04-25T03:55:52;10.13;;;6.95;;
77415;SDS011;66489;49.230;8.520;2023-04-25T03:58:19;11.68;;;7.45;;
77415;SDS011;66489;49.230;8.520;2023-04-25T04:00:47;11.20;;;7.47;;
77415;SDS011;66489;49.230;8.520;2023-04-25T04:03:13;10.88;;;7.13;;
77415;SDS011;66489;49.230;8.520;2023-04-25T04:05:40;13.35;;;7.22;;
77415;SDS011;66489;49.230;8.520;2023-04-25T04:08:07;10.60;;;7.20;;
77415;SDS011;66489;49.230;8.520;2023-04-25T04:10:36;13.05;;;7.55;;
77415;SDS011;66489;49.230;8.520;2023-04-25T04:13:02;11.20;;;7.30;;
77415;SDS011;66489;49.230;8.520;2023-04-25T04:15:29;9.77;;;7.43;;
77415;SDS011;66489;49.230;8.520;2023-04-25T04:17:59;9.98;;;7.28;;
77415;SDS011;66489;49.230;8.520;2023-04-25T04:20:29;10.55;;;7.45;;
77415;SDS011;66489;49.230;8.520;2023-04-25T04:22:56;11.30;;;7.43;;
77415;SDS011;66489;49.230;8.520;2023-04-25T04:25:23;11.38;;;7.43;;
77415;SDS011;66489;49.230;8.520;2023-04-25T04:28:04;10.38;;;7.50;;
77415;SDS011;66489;49.230;8.520;2023-04-25T04:30:39;12.57;;;8.27;;
77415;SDS011;66489;49.230;8.520;2023-04-25T04:33:08;11.43;;;7.88;;
77415;SDS011;66489;49.230;8.520;2023-04-25T04:35:35;13.63;;;8.13;;
77415;SDS011;66489;49.230;8.520;2023-04-25T04:38:02;12.48;;;8.63;;
77415;SDS011;66489;49.230;8.520;2023-04-25T04:40:32;13.35;;;8.30;;
77415;SDS011;66489;49.230;8.520;2023-04-25T04:43:22;13.57;;;9.50;;
77415;SDS011;66489;49.230;8.520;2023-04-25T04:46:11;13.07;;;8.95;;
77415;SDS011;66489;49.230;8.520;2023-04-25T04:48:57;14.85;;;9.77;;
77415;SDS011;66489;49.230;8.520;2023-04-25T04:51:43;14.15;;;10.63;;
77415;SDS011;66489;49.230;8.520;2023-04-25T04:54:48;16.55;;;11.13;;
77415;SDS011;66489;49.230;8.520;2023-04-25T04:57:31;17.83;;;11.35;;
77415;SDS011;66489;49.230;8.520;2023-04-25T05:00:14;16.40;;;11.27;;
77415;SDS011;66489;49.230;8.520;2023-04-25T05:03:00;18.45;;;11.90;;
77415;SDS011;66489;49.230;8.520;2023-04-25T05:05:36;16.05;;;11.50;;
77415;SDS011;66489;49.230;8.520;2023-04-25T05:08:17;17.92;;;11.18;;
77415;SDS011;66489;49.230;8.520;2023-04-25T05:11:07;18.67;;;11.30;;
77415;SDS011;66489;49.230;8.520;2023-04-25T05:13:40;17.23;;;12.05;;
77415;SDS011;66489;49.230;8.520;2023-04-25T05:16:25;19.83;;;13.07;;
77415;SDS011;66489;49.230;8.520;2023-04-25T05:19:12;16.67;;;11.70;;
77415;SDS011;66489;49.230;8.520;2023-04-25T05:21:48;15.20;;;10.73;;
77415;SDS011;66489;49.230;8.520;2023-04-25T05:24:47;14.13;;;9.40;;
77415;SDS011;66489;49.230;8.520;2023-04-25T05:27:44;13.43;;;9.35;;
77415;SDS011;66489;49.230;8.520;2023-04-25T05:30:21;13.25;;;9.10;;
77415;SDS011;66489;49.230;8.520;2023-04-25T05:33:04;11.13;;;8.10;;
77415;SDS011;66489;49.230;8.520;2023-04-25T05:35:31;11.35;;;8.15;;
77415;SDS011;66489;49.230;8.520;2023-04-25T05:37:59;9.70;;;8.00;;
77415;SDS011;66489;49.230;8.520;2023-04-25T05:40:51;10.57;;;7.47;;
77415;SDS011;66489;49.230;8.520;2023-04-25T05:43:37;9.35;;;7.38;;
77415;SDS011;66489;49.230;8.520;2023-04-25T05:46:20;10.13;;;7.30;;
77415;SDS011;66489;49.230;8.520;2023-04-25T05:49:10;10.77;;;8.30;;
77415;SDS011;66489;49.230;8.520;2023-04-25T05:51:55;10.90;;;8.63;;
77415;SDS011;66489;49.230;8.520;2023-04-25T05:54:48;10.07;;;8.30;;
77415;SDS011;66489;49.230;8.520;2023-04-25T05:57:18;15.13;;;8.93;;
77415;SDS011;66489;49.230;8.520;2023-04-25T05:59:48;11.57;;;8.98;;
77415;SDS011;66489;49.230;8.520;2023-04-25T06:02:15;13.13;;;9.15;;
77415;SDS011;66489;49.230;8.520;2023-04-25T06:04:44;14.80;;;9.63;;
77415;SDS011;66489;49.230;8.520;2023-04-25T06:07:11;13.10;;;9.55;;
77415;SDS011;66489;49.230;8.520;2023-04-25T06:09:37;14.30;;;10.07;;
77415;SDS011;66489;49.230;8.520;2023-04-25T06:12:05;19.02;;;9.73;;
77415;SDS011;66489;49.230;8.520;2023-04-25T06:14:33;14.55;;;10.05;;
77415;SDS011;66489;49.230;8.520;2023-04-25T06:17:00;14.25;;;9.90;;
77415;SDS011;66489;49.230;8.520;2023-04-25T06:19:32;13.50;;;10.40;;
77415;SDS011;66489;49.230;8.520;2023-04-25T06:21:59;14.95;;;10.48;;
77415;SDS011;66489;49.230;8.520;2023-04-25T06:24:26;13.52;;;10.07;;
77415;SDS011;66489;49.230;8.520;2023-04-25T06:26:53;15.02;;;10.80;;
77415;SDS011;66489;49.230;8.520;2023-04-25T06:29:19;15.57;;;11.10;;
77415;SDS011;66489;49.230;8.520;2023-04-25T06:31:46;16.75;;;10.95;;
77415;SDS011;66489;49.230;8.520;2023-04-25T06:34:13;13.75;;;10.20;;
77415;SDS011;66489;49.230;8.520;2023-04-25T06:36:40;15.85;;;10.48;;
77415;SDS011;66489;49.230;8.520;2023-04-25T06:39:10;13.07;;;9.43;;
77415;SDS011;66489;49.230;8.520;2023-04-25T06:41:37;10.35;;;7.80;;
77415;SDS011;66489;49.230;8.520;2023-04-25T06:44:06;11.32;;;8.50;;
77415;SDS011;66489;49.230;8.520;2023-04-25T06:46:48;11.52;;;8.05;;
77415;SDS011;66489;49.230;8.520;2023-04-25T06:49:14;10.70;;;8.35;;
77415;SDS011;66489;49.230;8.520;2023-04-25T06:51:41;13.85;;;8.23;;
77415;SDS011;66489;49.230;8.520;2023-04-25T06:54:08;11.90;;;8.82;;
77415;SDS011;66489;49.230;8.520;2023-04-25T06:56:41;11.05;;;8.43;;
77415;SDS011;66489;49.230;8.520;2023-04-25T06:59:13;10.40;;;8.00;;
77415;SDS011;66489;49.230;8.520;2023-04-25T07:01:42;10.68;;;8.20;;
77415;SDS011;66489;49.230;8.520;2023-04-25T07:04:20;12.82;;;8.48;;
77415;SDS011;66489;49.230;8.520;2023-04-25T07:06:51;11.65;;;8.80;;
77415;SDS011;66489;49.230;8.520;2023-04-25T07:09:25;10.73;;;7.82;;
77415;SDS011;66489;49.230;8.520;2023-04-25T07:11:52;9.73;;;7.82;;
77415;SDS011;66489;49.230;8.520;2023-04-25T07:14:18;11.10;;;8.10;;
77415;SDS011;66489;49.230;8.520;2023-04-25T07:16:45;9.65;;;7.82;;
77415;SDS011;66489;49.230;8.520;2023-04-25T07:19:12;10.57;;;8.20;;
77415;SDS011;66489;49.230;8.520;2023-04-25T07:21:38;11.23;;;8.32;;
77415;SDS011;66489;49.230;8.520;2023-04-25T07:24:05;11.55;;;8.30;;
77415;SDS011;66489;49.230;8.520;2023-04-25T07:26:35;10.77;;;8.55;;
77415;SDS011;66489;49.230;8.520;2023-04-25T07:29:20;11.57;;;8.77;;
77415;SDS011;66489;49.230;8.520;2023-04-25T07:31:47;12.45;;;8.82;;
77415;SDS011;66489;49.230;8.520;2023-04-25T07:34:14;12.82;;;9.00;;
77415;SDS011;66489;49.230;8.520;2023-04-25T07:36:40;12.40;;;8.82;;
77415;SDS011;66489;49.230;8.520;2023-04-25T07:39:07;12.27;;;9.30;;
77415;SDS011;66489;49.230;8.520;2023-04-25T07:41:35;11.82;;;9.10;;
77415;SDS011;66489;49.230;8.520;2023-04-25T07:44:02;11.02;;;8.55;;
77415;SDS011;66489;49.230;8.520;2023-04-25T07:46:30;12.18;;;8.73;;
77415;SDS011;66489;49.230;8.520;2023-04-25T07:48:57;12.20;;;9.27;;
77415;SDS011;66489;49.230;8.520;2023-04-25T07:51:24;12.18;;;9.45;;
77415;SDS011;66489;49.230;8.520;2023-04-25T07:53:52;13.50;;;10.07;;
77415;SDS011;66489;49.230;8.520;2023-04-25T07:56:19;13.30;;;9.65;;
77415;SDS011;66489;49.230;8.520;2023-04-25T07:58:47;16.63;;;9.95;;
77415;SDS011;66489;49.230;8.520;2023-04-25T08:01:17;13.07;;;9.52;;
77415;SDS011;66489;49.230;8.520;2023-04-25T08:03:52;12.05;;;8.50;;
77415;SDS011;66489;49.230;8.520;2023-04-25T08:06:34;12.48;;;9.45;;
77415;SDS011;66489;49.230;8.520;2023-04-25T08:09:12;13.53;;;9.90;;
77415;SDS011;66489;49.230;8.520;2023-04-25T08:11:41;14.77;;;10.23;;
77415;SDS011;66489;49.230;8.520;2023-04-25T08:16:39;17.42;;;10.73;;
77415;SDS011;66489;49.230;8.520;2023-04-25T08:19:06;15.55;;;10.60;;
77415;SDS011;66489;49.230;8.520;2023-04-25T08:21:33;16.75;;;10.48;;
77415;SDS011;66489;49.230;8.520;2023-04-25T08:24:03;17.27;;;11.15;;
77415;SDS011;66489;49.230;8.520;2023-04-25T08:26:34;18.25;;;10.98;;
77415;SDS011;66489;49.230;8.520;2023-04-25T08:29:01;15.80;;;11.23;;
77415;SDS011;66489;49.230;8.520;2023-04-25T08:31:27;17.17;;;11.32;;
77415;SDS011;66489;49.230;8.520;2023-04-25T08:33:57;17.35;;;11.65;;
77415;SDS011;66489;49.230;8.520;2023-04-25T08:39:17;12.90;;;7.85;;
77415;SDS011;66489;49.230;8.520;2023-04-25T08:42:02;13.00;;;8.10;;
77415;SDS011;66489;49.230;8.520;2023-04-25T08:44:34;13.43;;;7.15;;
77415;SDS011;66489;49.230;8.520;2023-04-25T08:47:04;9.45;;;6.35;;
77415;SDS011;66489;49.230;8.520;2023-04-25T08:49:37;12.13;;;6.88;;
77415;SDS011;66489;49.230;8.520;2023-04-25T08:52:08;10.50;;;6.28;;
77415;SDS011;66489;49.230;8.520;2023-04-25T08:54:37;12.35;;;7.30;;
77415;SDS011;66489;49.230;8.520;2023-04-25T08:57:07;11.85;;;7.45;;
77415;SDS011;66489;49.230;8.520;2023-04-25T08:59:34;11.90;;;7.68;;
77415;SDS011;66489;49.230;8.520;2023-04-25T09:02:05;12.77;;;7.10;;
77415;SDS011;66489;49.230;8.520;2023-04-25T09:04:32;12.20;;;7.45;;
77415;SDS011;66489;49.230;8.520;2023-04-25T09:06:59;15.57;;;7.95;;
77415;SDS011;66489;49.230;8.520;2023-04-25T09:09:26;16.45;;;8.95;;
77415;SDS011;66489;49.230;8.520;2023-04-25T09:11:53;15.13;;;7.53;;
77415;SDS011;66489;49.230;8.520;2023-04-25T09:14:22;16.58;;;8.57;;
77415;SDS011;66489;49.230;8.520;2023-04-25T09:16:59;16.33;;;9.10;;
77415;SDS011;66489;49.230;8.520;2023-04-25T09:19:45;17.13;;;10.13;;
77415;SDS011;66489;49.230;8.520;2023-04-25T09:22:20;16.02;;;10.00;;
77415;SDS011;66489;49.230;8.520;2023-04-25T09:24:49;13.90;;;9.50;;
77415;SDS011;66489;49.230;8.520;2023-04-25T09:29:48;14.55;;;9.30;;
77415;SDS011;66489;49.230;8.520;2023-04-25T09:32:23;17.55;;;9.73;;
77415;SDS011;66489;49.230;8.520;2023-04-25T09:34:54;18.85;;;10.63;;
77415;SDS011;66489;49.230;8.520;2023-04-25T09:37:23;20.43;;;10.50;;
77415;SDS011;66489;49.230;8.520;2023-04-25T09:40:10;18.65;;;10.52;;
77415;SDS011;66489;49.230;8.520;2023-04-25T09:42:50;18.45;;;10.18;;
77415;SDS011;66489;49.230;8.520;2023-04-25T09:45:17;14.25;;;10.05;;
77415;SDS011;66489;49.230;8.520;2023-04-25T09:47:44;18.73;;;10.73;;
77415;SDS011;66489;49.230;8.520;2023-04-25T09:50:15;17.88;;;9.98;;
77415;SDS011;66489;49.230;8.520;2023-04-25T09:52:50;17.83;;;10.27;;
77415;SDS011;66489;49.230;8.520;2023-04-25T09:55:34;20.85;;;10.57;;
77415;SDS011;66489;49.230;8.520;2023-04-25T09:58:03;16.58;;;10.63;;
77415;SDS011;66489;49.230;8.520;2023-04-25T10:00:34;15.45;;;10.35;;
77415;SDS011;66489;49.230;8.520;2023-04-25T10:03:14;19.48;;;10.25;;
77415;SDS011;66489;49.230;8.520;2023-04-25T10:06:03;16.83;;;9.80;;
77415;SDS011;66489;49.230;8.520;2023-04-25T10:08:31;14.52;;;9.13;;
77415;SDS011;66489;49.230;8.520;2023-04-25T10:11:00;14.00;;;9.47;;
77415;SDS011;66489;49.230;8.520;2023-04-25T10:13:28;14.35;;;10.10;;
77415;SDS011;66489;49.230;8.520;2023-04-25T10:15:56;19.50;;;10.52;;
77415;SDS011;66489;49.230;8.520;2023-04-25T10:18:27;17.20;;;10.32;;
77415;SDS011;66489;49.230;8.520;2023-04-25T10:20:55;17.27;;;9.70;;
77415;SDS011;66489;49.230;8.520;2023-04-25T10:23:23;16.47;;;8.97;;
77415;SDS011;66489;49.230;8.520;2023-04-25T10:25:51;14.18;;;8.38;;
77415;SDS011;66489;49.230;8.520;2023-04-25T10:28:18;14.07;;;8.60;;
77415;SDS011;66489;49.230;8.520;2023-04-25T10:33:35;13.38;;;8.38;;
77415;SDS011;66489;49.230;8.520;2023-04-25T10:38:39;11.32;;;7.80;;
77415;SDS011;66489;49.230;8.520;2023-04-25T10:41:06;15.68;;;8.70;;
77415;SDS011;66489;49.230;8.520;2023-04-25T10:43:45;13.75;;;7.88;;
77415;SDS011;66489;49.230;8.520;2023-04-25T10:49:00;11.30;;;7.38;;
77415;SDS011;66489;49.230;8.520;2023-04-25T10:54:16;11.02;;;8.05;;
77415;SDS011;66489;49.230;8.520;2023-04-25T10:56:43;15.55;;;7.80;;
77415;SDS011;66489;49.230;8.520;2023-04-25T10:59:11;12.57;;;7.32;;
77415;SDS011;66489;49.230;8.520;2023-04-25T11:01:40;11.57;;;7.03;;
77415;SDS011;66489;49.230;8.520;2023-04-25T11:04:20;9.87;;;7.50;;
77415;SDS011;66489;49.230;8.520;2023-04-25T11:09:26;11.25;;;7.40;;
77415;SDS011;66489;49.230;8.520;2023-04-25T11:11:56;13.15;;;7.70;;
77415;SDS011;66489;49.230;8.520;2023-04-25T11:14:24;11.45;;;6.75;;
77415;SDS011;66489;49.230;8.520;2023-04-25T11:16:54;11.52;;;6.60;;
77415;SDS011;66489;49.230;8.520;2023-04-25T11:19:25;12.15;;;6.80;;
77415;SDS011;66489;49.230;8.520;2023-04-25T11:21:56;10.10;;;7.00;;
77415;SDS011;66489;49.230;8.520;2023-04-25T11:24:29;11.05;;;6.60;;
77415;SDS011;66489;49.230;8.520;2023-04-25T11:27:06;11.38;;;6.55;;
77415;SDS011;66489;49.230;8.520;2023-04-25T11:29:33;9.27;;;6.72;;
77415;SDS011;66489;49.230;8.520;2023-04-25T11:32:01;9.48;;;6.40;;
77415;SDS011;66489;49.230;8.520;2023-04-25T11:34:29;12.93;;;7.45;;
77415;SDS011;66489;49.230;8.520;2023-04-25T11:36:57;15.48;;;7.60;;
77415;SDS011;66489;49.230;8.520;2023-04-25T11:39:23;12.45;;;6.90;;
77415;SDS011;66489;49.230;8.520;2023-04-25T11:41:51;13.52;;;7.55;;
77415;SDS011;66489;49.230;8.520;2023-04-25T11:44:18;13.00;;;7.25;;
77415;SDS011;66489;49.230;8.520;2023-04-25T11:46:46;12.50;;;7.50;;
77415;SDS011;66489;49.230;8.520;2023-04-25T11:49:13;13.30;;;7.63;;
77415;SDS011;66489;49.230;8.520;2023-04-25T11:51:41;13.70;;;8.05;;
77415;SDS011;66489;49.230;8.520;2023-04-25T11:54:09;11.02;;;7.57;;
77415;SDS011;66489;49.230;8.520;2023-04-25T11:56:36;11.43;;;7.65;;
77415;SDS011;66489;49.230;8.520;2023-04-25T11:59:03;14.27;;;8.32;;
77415;SDS011;66489;49.230;8.520;2023-04-25T12:01:33;12.55;;;7.40;;
77415;SDS011;66489;49.230;8.520;2023-04-25T12:06:39;10.52;;;7.30;;
77415;SDS011;66489;49.230;8.520;2023-04-25T12:09:07;10.70;;;7.55;;
77415;SDS011;66489;49.230;8.520;2023-04-25T12:11:40;11.63;;;6.90;;
77415;SDS011;66489;49.230;8.520;2023-04-25T12:14:20;11.88;;;7.45;;
77415;SDS011;66489;49.230;8.520;2023-04-25T12:16:50;10.10;;;7.60;;
77415;SDS011;66489;49.230;8.520;2023-04-25T12:19:18;12.00;;;7.72;;
77415;SDS011;66489;49.230;8.520;2023-04-25T12:21:47;11.85;;;7.55;;
77415;SDS011;66489;49.230;8.520;2023-04-25T12:24:25;13.13;;;8.75;;
77415;SDS011;66489;49.230;8.520;2023-04-25T12:29:28;14.00;;;9.30;;
77415;SDS011;66489;49.230;8.520;2023-04-25T12:32:07;16.48;;;7.88;;
77415;SDS011;66489;49.230;8.520;2023-04-25T12:34:34;11.93;;;8.75;;
77415;SDS011;66489;49.230;8.520;2023-04-25T12:37:02;13.38;;;9.45;;
77415;SDS011;66489;49.230;8.520;2023-04-25T12:39:28;13.60;;;8.55;;
77415;SDS011;66489;49.230;8.520;2023-04-25T12:41:55;12.00;;;7.80;;
77415;SDS011;66489;49.230;8.520;2023-04-25T12:44:21;11.82;;;7.72;;
77415;SDS011;66489;49.230;8.520;2023-04-25T12:46:48;10.98;;;7.30;;
77415;SDS011;66489;49.230;8.520;2023-04-25T12:49:14;13.30;;;7.55;;
77415;SDS011;66489;49.230;8.520;2023-04-25T12:51:44;11.50;;;8.45;;
77415;SDS011;66489;49.230;8.520;2023-04-25T12:54:11;10.38;;;7.38;;
77415;SDS011;66489;49.230;8.520;2023-04-25T12:56:37;11.65;;;7.55;;
77415;SDS011;66489;49.230;8.520;2023-04-25T12:59:04;11.32;;;8.20;;
77415;SDS011;66489;49.230;8.520;2023-04-25T13:01:31;12.32;;;7.88;;
77415;SDS011;66489;49.230;8.520;2023-04-25T13:04:01;10.57;;;8.07;;
77415;SDS011;66489;49.230;8.520;2023-04-25T13:06:28;10.30;;;7.15;;
77415;SDS011;66489;49.230;8.520;2023-04-25T13:08:57;9.90;;;6.73;;
77415;SDS011;66489;49.230;8.520;2023-04-25T13:11:23;10.82;;;6.50;;
77415;SDS011;66489;49.230;8.520;2023-04-25T13:13:50;11.23;;;7.40;;
77415;SDS011;66489;49.230;8.520;2023-04-25T13:16:17;11.02;;;7.00;;
77415;SDS011;66489;49.230;8.520;2023-04-25T13:18:47;12.20;;;6.90;;
77415;SDS011;66489;49.230;8.520;2023-04-25T13:21:14;10.10;;;6.68;;
77415;SDS011;66489;49.230;8.520;2023-04-25T13:23:40;10.60;;;7.93;;
77415;SDS011;66489;49.230;8.520;2023-04-25T13:26:09;9.45;;;6.68;;
77415;SDS011;66489;49.230;8.520;2023-04-25T13:28:35;9.20;;;6.80;;
77415;SDS011;66489;49.230;8.520;2023-04-25T13:31:02;9.77;;;6.68;;
77415;SDS011;66489;49.230;8.520;2023-04-25T13:33:28;9.15;;;6.22;;
77415;SDS011;66489;49.230;8.520;2023-04-25T13:35:55;7.78;;;6.38;;
77415;SDS011;66489;49.230;8.520;2023-04-25T13:38:24;9.10;;;6.32;;
77415;SDS011;66489;49.230;8.520;2023-04-25T13:40:51;10.63;;;6.15;;
77415;SDS011;66489;49.230;8.520;2023-04-25T13:43:21;8.70;;;5.90;;
77415;SDS011;66489;49.230;8.520;2023-04-25T13:48:15;6.93;;;5.40;;
77415;SDS011;66489;49.230;8.520;2023-04-25T13:50:42;7.75;;;5.78;;
77415;SDS011;66489;49.230;8.520;2023-04-25T13:53:08;9.73;;;5.85;;
77415;SDS011;66489;49.230;8.520;2023-04-25T13:55:35;8.27;;;6.20;;
77415;SDS011;66489;49.230;8.520;2023-04-25T13:58:05;8.13;;;6.10;;
77415;SDS011;66489;49.230;8.520;2023-04-25T14:00:36;7.82;;;6.32;;
77415;SDS011;66489;49.230;8.520;2023-04-25T14:03:04;11.17;;;6.80;;
77415;SDS011;66489;49.230;8.520;2023-04-25T14:05:35;8.30;;;6.00;;
77415;SDS011;66489;49.230;8.520;2023-04-25T14:08:08;8.25;;;6.35;;
77415;SDS011;66489;49.230;8.520;2023-04-25T14:10:35;10.90;;;5.90;;
77415;SDS011;66489;49.230;8.520;2023-04-25T14:13:02;9.60;;;6.05;;
77415;SDS011;66489;49.230;8.520;2023-04-25T14:15:31;8.13;;;6.20;;
77415;SDS011;66489;49.230;8.520;2023-04-25T14:17:58;9.30;;;6.10;;
77415;SDS011;66489;49.230;8.520;2023-04-25T14:20:25;10.95;;;6.38;;
77415;SDS011;66489;49.230;8.520;2023-04-25T14:22:52;9.75;;;6.40;;
77415;SDS011;66489;49.230;8.520;2023-04-25T14:25:20;8.05;;;5.90;;
77415;SDS011;66489;49.230;8.520;2023-04-25T14:27:48;9.35;;;5.80;;
77415;SDS011;66489;49.230;8.520;2023-04-25T14:30:19;8.25;;;5.55;;
77415;SDS011;66489;49.230;8.520;2023-04-25T14:32:48;9.40;;;5.97;;
77415;SDS011;66489;49.230;8.520;2023-04-25T14:35:15;9.90;;;6.18;;
77415;SDS011;66489;49.230;8.520;2023-04-25T14:37:42;9.18;;;6.05;;
77415;SDS011;66489;49.230;8.520;2023-04-25T14:40:08;8.63;;;6.22;;
77415;SDS011;66489;49.230;8.520;2023-04-25T14:42:37;9.37;;;6.47;;
77415;SDS011;66489;49.230;8.520;2023-04-25T14:45:05;11.75;;;6.47;;
77415;SDS011;66489;49.230;8.520;2023-04-25T14:47:33;11.13;;;6.88;;
77415;SDS011;66489;49.230;8.520;2023-04-25T14:50:00;12.38;;;6.85;;
77415;SDS011;66489;49.230;8.520;2023-04-25T14:52:28;10.50;;;6.72;;
77415;SDS011;66489;49.230;8.520;2023-04-25T14:54:54;11.43;;;6.63;;
77415;SDS011;66489;49.230;8.520;2023-04-25T14:57:21;11.02;;;7.10;;
77415;SDS011;66489;49.230;8.520;2023-04-25T14:59:47;10.18;;;6.68;;
77415;SDS011;66489;49.230;8.520;2023-04-25T15:02:14;10.52;;;6.68;;
77415;SDS011;66489;49.230;8.520;2023-04-25T15:04:41;9.13;;;6.30;;
77415;SDS011;66489;49.230;8.520;2023-04-25T15:07:08;9.15;;;6.63;;
77415;SDS011;66489;49.230;8.520;2023-04-25T15:09:34;11.95;;;6.38;;
77415;SDS011;66489;49.230;8.520;2023-04-25T15:12:01;9.63;;;6.30;;
77415;SDS011;66489;49.230;8.520;2023-04-25T15:14:28;10.15;;;6.63;;
77415;SDS011;66489;49.230;8.520;2023-04-25T15:16:55;10.75;;;6.45;;
77415;SDS011;66489;49.230;8.520;2023-04-25T15:19:21;10.95;;;5.90;;
77415;SDS011;66489;49.230;8.520;2023-04-25T15:21:48;10.27;;;6.13;;